createdAt,value
2018-06-14T00:00:17.496Z,11.45
2018-06-14T00:01:17.456Z,11.41
2018-06-14T00:02:17.407Z,11.41
2018-06-14T00:03:17.363Z,11.40
2018-06-14T00:04:17.321Z,11.44
2018-06-14T00:05:17.279Z,11.44
2018-06-14T00:06:17.231Z,11.34
2018-06-14T00:07:17.189Z,11.34
2018-06-14T00:08:17.142Z,11.26
2018-06-14T00:09:17.099Z,11.26
2018-06-14T00:10:17.056Z,11.25
2018-06-14T00:11:17.008Z,11.27
2018-06-14T00:12:17.013Z,11.26
2018-06-14T00:13:16.923Z,11.19
2018-06-14T00:14:16.880Z,11.23
2018-06-14T00:15:16.834Z,11.30
2018-06-14T00:16:16.791Z,11.26
2018-06-14T00:17:16.747Z,11.31
2018-06-14T00:18:16.700Z,11.30
2018-06-14T00:19:16.660Z,11.22
2018-06-14T00:20:16.624Z,11.27
2018-06-14T00:21:16.570Z,11.33
2018-06-14T00:22:16.526Z,11.30
2018-06-14T00:23:16.479Z,11.26
2018-06-14T00:24:16.439Z,11.25
2018-06-14T00:25:16.391Z,11.25
2018-06-14T00:26:16.346Z,11.25
2018-06-14T00:27:16.304Z,11.27
2018-06-14T00:28:16.259Z,11.20
2018-06-14T00:29:16.212Z,11.20
2018-06-14T00:30:16.169Z,11.18
2018-06-14T00:31:16.126Z,11.23
2018-06-14T00:32:16.082Z,11.20
2018-06-14T00:33:16.041Z,11.19
2018-06-14T00:34:15.993Z,11.18
2018-06-14T00:35:15.947Z,11.19
2018-06-14T00:36:15.903Z,11.19
2018-06-14T00:37:15.860Z,11.22
2018-06-14T00:38:15.815Z,11.12
2018-06-14T00:39:15.770Z,11.05
2018-06-14T00:40:15.726Z,11.10
2018-06-14T00:41:15.680Z,11.08
2018-06-14T00:42:15.637Z,11.18
2018-06-14T00:43:15.592Z,11.13
2018-06-14T00:44:15.547Z,11.04
2018-06-14T00:45:15.504Z,11.07
2018-06-14T00:46:15.460Z,11.04
2018-06-14T00:47:15.422Z,11.08
2018-06-14T00:48:15.372Z,11.08
2018-06-14T00:49:15.327Z,11.04
2018-06-14T00:50:15.283Z,11.04
2018-06-14T00:51:15.241Z,11.05
2018-06-14T00:52:15.195Z,11.04
2018-06-14T00:53:15.148Z,11.08
2018-06-14T00:54:15.104Z,11.08
2018-06-14T00:55:15.059Z,11.02
2018-06-14T00:56:15.018Z,11.07
2018-06-14T00:57:14.971Z,11.07
2018-06-14T00:58:14.979Z,11.07
2018-06-14T00:59:14.891Z,11.07
2018-06-14T01:00:14.839Z,11.04
2018-06-14T01:01:14.801Z,11.02
2018-06-14T01:02:14.759Z,11.04
2018-06-14T01:03:14.704Z,10.97
2018-06-14T01:04:14.664Z,11.07
2018-06-14T01:05:14.616Z,11.02
2018-06-14T01:06:14.576Z,10.95
2018-06-14T01:07:14.528Z,10.95
2018-06-14T01:08:14.483Z,11.01
2018-06-14T01:09:14.438Z,10.98
2018-06-14T01:10:14.394Z,10.95
2018-06-14T01:11:14.350Z,11.01
2018-06-14T01:12:14.310Z,10.97
2018-06-14T01:13:14.261Z,10.94
2018-06-14T01:14:14.219Z,10.89
2018-06-14T01:15:14.176Z,10.87
2018-06-14T01:16:14.127Z,10.90
2018-06-14T01:17:14.084Z,10.89
2018-06-14T01:18:14.043Z,10.87
2018-06-14T01:19:13.994Z,10.89
2018-06-14T01:20:13.950Z,10.92
2018-06-14T01:21:13.906Z,10.95
2018-06-14T01:22:13.861Z,10.86
2018-06-14T01:23:13.818Z,10.94
2018-06-14T01:24:13.771Z,10.90
2018-06-14T01:25:13.729Z,10.94
2018-06-14T01:26:13.683Z,10.80
2018-06-14T01:27:13.642Z,10.92
2018-06-14T01:28:13.593Z,10.86
2018-06-14T01:29:13.550Z,10.84
2018-06-14T01:30:13.504Z,10.84
2018-06-14T01:31:13.459Z,10.86
2018-06-14T01:32:13.418Z,10.82
2018-06-14T01:33:13.373Z,10.84
2018-06-14T01:34:13.329Z,10.86
2018-06-14T01:35:13.282Z,10.84
2018-06-14T01:36:13.238Z,10.79
2018-06-14T01:37:13.196Z,10.84
2018-06-14T01:38:13.151Z,10.92
2018-06-14T01:39:13.107Z,10.82
2018-06-14T01:40:13.060Z,10.79
2018-06-14T01:41:13.020Z,10.80
2018-06-14T01:42:12.971Z,10.82
2018-06-14T01:43:12.929Z,10.79
2018-06-14T01:44:12.882Z,10.87
2018-06-14T01:45:12.847Z,10.82
2018-06-14T01:46:12.794Z,10.86
2018-06-14T01:47:12.754Z,10.76
2018-06-14T01:48:12.706Z,10.82
2018-06-14T01:49:12.661Z,10.79
2018-06-14T01:50:12.619Z,10.76
2018-06-14T01:51:12.574Z,10.79
2018-06-14T01:52:12.529Z,10.68
2018-06-14T01:53:12.482Z,10.80
2018-06-14T01:54:12.440Z,10.83
2018-06-14T01:55:12.938Z,10.79
2018-06-14T01:56:12.361Z,10.76
2018-06-14T01:57:12.305Z,10.83
2018-06-14T01:58:12.263Z,10.69
2018-06-14T01:59:12.216Z,10.79
2018-06-14T02:00:12.171Z,10.76
2018-06-14T02:01:12.128Z,10.72
2018-06-14T02:02:12.081Z,10.75
2018-06-14T02:03:12.036Z,10.76
2018-06-14T02:04:11.993Z,10.68
2018-06-14T02:05:11.961Z,10.76
2018-06-14T02:06:11.907Z,10.72
2018-06-14T02:07:11.859Z,10.71
2018-06-14T02:08:11.815Z,10.80
2018-06-14T02:09:11.769Z,10.80
2018-06-14T02:10:11.726Z,10.76
2018-06-14T02:11:11.683Z,10.71
2018-06-14T02:12:11.635Z,10.69
2018-06-14T02:13:11.590Z,10.69
2018-06-14T02:14:11.551Z,10.75
2018-06-14T02:15:11.505Z,10.71
2018-06-14T02:16:11.459Z,10.71
2018-06-14T02:17:11.414Z,10.75
2018-06-14T02:18:11.369Z,10.72
2018-06-14T02:19:11.331Z,10.71
2018-06-14T02:20:11.281Z,10.76
2018-06-14T02:21:11.234Z,10.75
2018-06-14T02:22:11.195Z,10.76
2018-06-14T02:23:11.148Z,10.65
2018-06-14T02:24:11.103Z,10.76
2018-06-14T02:25:11.061Z,10.75
2018-06-14T02:26:11.018Z,10.71
2018-06-14T02:27:10.967Z,10.68
2018-06-14T02:28:10.922Z,10.71
2018-06-14T02:29:10.878Z,10.75
2018-06-14T02:30:10.834Z,10.64
2018-06-14T02:31:10.795Z,10.69
2018-06-14T02:32:10.743Z,10.75
2018-06-14T02:33:10.699Z,10.75
2018-06-14T02:34:10.657Z,10.67
2018-06-14T02:35:10.613Z,10.68
2018-06-14T02:36:12.026Z,10.76
2018-06-14T02:37:10.522Z,10.72
2018-06-14T02:38:10.477Z,10.71
2018-06-14T02:39:10.436Z,10.71
2018-06-14T02:40:10.390Z,10.72
2018-06-14T02:41:10.344Z,10.80
2018-06-14T02:42:10.297Z,10.80
2018-06-14T02:43:10.255Z,10.68
2018-06-14T02:44:10.208Z,10.75
2018-06-14T02:45:10.185Z,10.71
2018-06-14T02:46:10.124Z,10.69
2018-06-14T02:47:10.074Z,10.80
2018-06-14T02:48:10.032Z,10.75
2018-06-14T02:49:09.997Z,10.71
2018-06-14T02:50:09.942Z,10.68
2018-06-14T02:51:09.961Z,10.76
2018-06-14T02:52:09.857Z,10.75
2018-06-14T02:53:09.812Z,10.75
2018-06-14T02:54:09.764Z,10.72
2018-06-14T02:55:09.720Z,10.72
2018-06-14T02:56:09.674Z,10.71
2018-06-14T02:57:09.631Z,10.79
2018-06-14T02:58:09.588Z,10.71
2018-06-14T02:59:09.540Z,10.76
2018-06-14T03:00:09.497Z,10.72
2018-06-14T03:01:09.450Z,10.69
2018-06-14T03:02:09.409Z,10.72
2018-06-14T03:03:09.363Z,10.79
2018-06-14T03:04:09.317Z,10.76
2018-06-14T03:05:09.273Z,10.79
2018-06-14T03:06:09.232Z,10.77
2018-06-14T03:07:09.184Z,10.80
2018-06-14T03:08:09.140Z,10.72
2018-06-14T03:09:09.095Z,10.76
2018-06-14T03:10:09.052Z,10.71
2018-06-14T03:11:09.008Z,10.67
2018-06-14T03:12:08.961Z,10.79
2018-06-14T03:13:08.917Z,10.76
2018-06-14T03:14:08.872Z,10.72
2018-06-14T03:15:08.829Z,10.72
2018-06-14T03:16:08.781Z,10.79
2018-06-14T03:17:08.738Z,10.76
2018-06-14T03:18:08.694Z,10.79
2018-06-14T03:19:08.649Z,10.79
2018-06-14T03:20:08.604Z,10.75
2018-06-14T03:21:08.560Z,10.72
2018-06-14T03:22:08.519Z,10.68
2018-06-14T03:23:08.472Z,10.82
2018-06-14T03:24:08.428Z,10.71
2018-06-14T03:25:08.380Z,10.76
2018-06-14T03:26:08.337Z,10.72
2018-06-14T03:27:08.291Z,10.71
2018-06-14T03:28:08.247Z,10.76
2018-06-14T03:29:08.204Z,10.71
2018-06-14T03:30:08.162Z,10.79
2018-06-14T03:31:08.115Z,10.72
2018-06-14T03:32:08.067Z,10.80
2018-06-14T03:33:08.024Z,10.76
2018-06-14T03:34:07.980Z,10.71
2018-06-14T03:35:07.934Z,10.77
2018-06-14T03:36:07.889Z,10.80
2018-06-14T03:37:12.352Z,10.86
2018-06-14T03:38:07.800Z,10.83
2018-06-14T03:39:07.755Z,10.77
2018-06-14T03:40:07.710Z,10.87
2018-06-14T03:41:07.666Z,10.87
2018-06-14T03:42:07.623Z,10.83
2018-06-14T03:43:07.578Z,10.80
2018-06-14T03:44:07.538Z,10.83
2018-06-14T03:45:07.490Z,10.84
2018-06-14T03:46:07.445Z,10.84
2018-06-14T03:47:07.402Z,10.82
2018-06-14T03:48:07.363Z,10.82
2018-06-14T03:49:07.309Z,10.86
2018-06-14T03:50:07.269Z,10.92
2018-06-14T03:51:07.230Z,10.90
2018-06-14T03:52:07.182Z,10.90
2018-06-14T03:53:07.134Z,10.90
2018-06-14T03:54:07.093Z,10.87
2018-06-14T03:55:07.045Z,10.89
2018-06-14T03:56:07.000Z,10.89
2018-06-14T03:57:06.955Z,10.89
2018-06-14T03:58:06.910Z,10.89
2018-06-14T03:59:06.865Z,11.00
2018-06-14T04:00:06.825Z,10.94
2018-06-14T04:01:06.779Z,10.94
2018-06-14T04:02:06.735Z,11.00
2018-06-14T04:03:06.688Z,11.04
2018-06-14T04:04:06.682Z,11.08
2018-06-14T04:05:06.600Z,11.05
2018-06-14T04:06:06.557Z,11.01
2018-06-14T04:07:06.510Z,11.08
2018-06-14T04:08:06.464Z,11.05
2018-06-14T04:09:06.421Z,11.18
2018-06-14T04:10:06.443Z,11.13
2018-06-14T04:11:06.334Z,11.20
2018-06-14T04:12:06.288Z,11.16
2018-06-14T04:13:06.245Z,11.25
2018-06-14T04:14:06.201Z,11.25
2018-06-14T04:15:06.153Z,11.26
2018-06-14T04:16:06.109Z,11.31
2018-06-14T04:17:06.065Z,11.33
2018-06-14T04:18:06.025Z,11.35
2018-06-14T04:19:05.977Z,11.43
2018-06-14T04:20:05.934Z,11.43
2018-06-14T04:21:05.890Z,11.37
2018-06-14T04:22:05.843Z,11.53
2018-06-14T04:23:05.800Z,11.44
2018-06-14T04:24:05.754Z,11.41
2018-06-14T04:25:05.712Z,11.52
2018-06-14T04:26:05.668Z,11.52
2018-06-14T04:27:05.621Z,11.56
2018-06-14T04:28:05.576Z,11.68
2018-06-14T04:29:05.533Z,11.56
2018-06-14T04:30:05.492Z,11.65
2018-06-14T04:31:05.445Z,11.68
2018-06-14T04:32:05.403Z,11.73
2018-06-14T04:33:05.356Z,11.68
2018-06-14T04:34:05.312Z,11.77
2018-06-14T04:35:05.269Z,11.88
2018-06-14T04:36:05.228Z,11.88
2018-06-14T04:37:05.181Z,11.86
2018-06-14T04:38:05.136Z,11.96
2018-06-14T04:39:05.091Z,12.00
2018-06-14T04:40:05.052Z,12.05
2018-06-14T04:41:05.004Z,12.08
2018-06-14T04:42:04.966Z,12.07
2018-06-14T04:43:04.920Z,12.12
2018-06-14T04:44:04.873Z,12.11
2018-06-14T04:45:04.829Z,12.17
2018-06-14T04:46:04.782Z,12.18
2018-06-14T04:47:04.739Z,12.28
2018-06-14T04:48:04.696Z,12.26
2018-06-14T04:49:04.654Z,12.35
2018-06-14T04:50:04.615Z,12.26
2018-06-14T04:51:04.563Z,12.37
2018-06-14T04:52:04.520Z,12.44
2018-06-14T04:53:04.481Z,12.44
2018-06-14T04:54:04.432Z,12.53
2018-06-14T04:55:04.388Z,12.51
2018-06-14T04:56:04.345Z,12.61
2018-06-14T04:57:04.302Z,12.63
2018-06-14T04:58:04.260Z,12.63
2018-06-14T04:59:04.231Z,12.69
2018-06-14T05:00:04.192Z,12.75
2018-06-14T05:01:04.129Z,12.84
2018-06-14T05:02:04.085Z,12.84
2018-06-14T05:03:04.041Z,12.90
2018-06-14T05:04:03.998Z,12.91
2018-06-14T05:05:03.954Z,12.90
2018-06-14T05:06:03.910Z,12.98
2018-06-14T05:07:03.866Z,13.03
2018-06-14T05:08:03.820Z,12.98
2018-06-14T05:09:03.788Z,13.16
2018-06-14T05:10:03.733Z,13.12
2018-06-14T05:11:03.689Z,13.16
2018-06-14T05:12:03.647Z,13.23
2018-06-14T05:13:03.604Z,13.24
2018-06-14T05:14:03.560Z,13.28
2018-06-14T05:15:03.517Z,13.28
2018-06-14T05:16:03.471Z,13.28
2018-06-14T05:17:03.428Z,13.37
2018-06-14T05:18:03.452Z,13.36
2018-06-14T05:19:03.341Z,13.36
2018-06-14T05:20:03.299Z,13.42
2018-06-14T05:21:03.253Z,13.47
2018-06-14T05:22:03.214Z,13.47
2018-06-14T05:23:03.166Z,13.54
2018-06-14T05:24:03.125Z,13.54
2018-06-14T05:25:03.083Z,13.62
2018-06-14T05:26:03.038Z,13.71
2018-06-14T05:27:02.993Z,13.73
2018-06-14T05:28:02.952Z,13.70
2018-06-14T05:29:02.912Z,13.75
2018-06-14T05:30:02.866Z,13.76
2018-06-14T05:31:02.823Z,13.89
2018-06-14T05:32:02.779Z,13.89
2018-06-14T05:33:02.736Z,14.00
2018-06-14T05:34:02.693Z,14.04
2018-06-14T05:35:02.648Z,14.03
2018-06-14T05:36:02.608Z,14.04
2018-06-14T05:37:02.563Z,14.13
2018-06-14T05:38:02.519Z,14.19
2018-06-14T05:39:02.475Z,14.20
2018-06-14T05:40:02.434Z,14.25
2018-06-14T05:41:02.392Z,14.23
2018-06-14T05:42:02.345Z,14.26
2018-06-14T05:43:02.303Z,14.31
2018-06-14T05:44:02.263Z,14.40
2018-06-14T05:45:02.217Z,14.43
2018-06-14T05:46:02.175Z,14.37
2018-06-14T05:47:02.134Z,14.38
2018-06-14T05:48:02.090Z,14.48
2018-06-14T05:49:02.047Z,14.43
2018-06-14T05:50:02.005Z,14.52
2018-06-14T05:51:01.964Z,14.53
2018-06-14T05:52:01.928Z,14.61
2018-06-14T05:53:01.874Z,14.61
2018-06-14T05:54:01.838Z,14.61
2018-06-14T05:55:01.787Z,14.66
2018-06-14T05:56:01.793Z,14.73
2018-06-14T05:57:01.706Z,14.79
2018-06-14T05:58:01.661Z,14.71
2018-06-14T05:59:01.616Z,14.82
2018-06-14T06:00:01.575Z,14.86
2018-06-14T06:01:01.529Z,14.81
2018-06-14T06:02:01.490Z,14.81
2018-06-14T06:03:01.448Z,14.96
2018-06-14T06:04:01.400Z,14.99
2018-06-14T06:05:01.359Z,15.00
2018-06-14T06:06:01.318Z,15.02
2018-06-14T06:07:01.275Z,14.97
2018-06-14T06:08:01.234Z,14.99
2018-06-14T06:09:01.187Z,15.04
2018-06-14T06:10:01.146Z,15.11
2018-06-14T06:11:01.102Z,15.25
2018-06-14T06:12:01.079Z,15.23
2018-06-14T06:13:01.018Z,15.26
2018-06-14T06:14:00.975Z,15.33
2018-06-14T06:15:00.930Z,15.36
2018-06-14T06:16:00.888Z,15.37
2018-06-14T06:17:00.845Z,15.35
2018-06-14T06:18:00.803Z,15.43
2018-06-14T06:19:00.767Z,15.52
2018-06-14T06:20:00.726Z,15.48
2018-06-14T06:21:00.676Z,15.52
2018-06-14T06:22:00.642Z,15.54
2018-06-14T06:23:00.593Z,15.59
2018-06-14T06:24:00.553Z,15.59
2018-06-14T06:25:00.508Z,15.67
2018-06-14T06:26:00.463Z,15.69
2018-06-14T06:27:00.425Z,15.75
2018-06-14T06:28:00.384Z,15.72
2018-06-14T06:29:00.337Z,15.78
2018-06-14T06:30:00.295Z,15.83
2018-06-14T06:31:00.252Z,15.84
2018-06-14T06:32:00.210Z,15.88
2018-06-14T06:33:00.172Z,15.92
2018-06-14T06:34:00.125Z,15.90
2018-06-14T06:35:00.086Z,15.99
2018-06-14T06:36:00.041Z,16.05
2018-06-14T06:36:59.997Z,16.08
2018-06-14T06:37:59.953Z,16.18
2018-06-14T06:38:59.910Z,16.21
2018-06-14T06:39:59.868Z,16.31
2018-06-14T06:40:59.830Z,16.17
2018-06-14T06:41:59.787Z,16.28
2018-06-14T06:42:59.743Z,16.24
2018-06-14T06:43:59.698Z,16.26
2018-06-14T06:44:59.712Z,16.37
2018-06-14T06:45:59.616Z,16.26
2018-06-14T06:46:59.572Z,16.36
2018-06-14T06:47:59.555Z,16.44
2018-06-14T06:48:59.488Z,16.46
2018-06-14T06:49:59.446Z,16.47
2018-06-14T06:50:59.406Z,16.50
2018-06-14T06:51:59.361Z,16.57
2018-06-14T06:52:59.320Z,16.59
2018-06-14T06:53:59.282Z,16.66
2018-06-14T06:54:59.235Z,16.68
2018-06-14T06:55:59.197Z,16.69
2018-06-14T06:56:59.159Z,16.79
2018-06-14T06:57:59.110Z,16.79
2018-06-14T06:58:59.095Z,16.79
2018-06-14T06:59:59.028Z,16.87
2018-06-14T07:00:58.982Z,16.92
2018-06-14T07:01:58.946Z,16.92
2018-06-14T07:02:58.899Z,16.92
2018-06-14T07:03:58.857Z,17.05
2018-06-14T07:04:58.817Z,17.09
2018-06-14T07:05:58.787Z,17.09
2018-06-14T07:06:58.734Z,17.12
2018-06-14T07:07:58.690Z,17.13
2018-06-14T07:08:58.648Z,17.19
2018-06-14T07:09:58.607Z,17.28
2018-06-14T07:10:58.565Z,17.32
2018-06-14T07:11:58.541Z,17.31
2018-06-14T07:12:58.482Z,17.27
2018-06-14T07:13:58.444Z,17.22
2018-06-14T07:14:58.397Z,17.41
2018-06-14T07:15:58.364Z,17.38
2018-06-14T07:16:58.315Z,17.47
2018-06-14T07:17:58.275Z,17.49
2018-06-14T07:18:58.233Z,17.49
2018-06-14T07:19:58.189Z,17.53
2018-06-14T07:20:58.147Z,17.59
2018-06-14T07:21:58.207Z,17.60
2018-06-14T07:22:58.065Z,17.69
2018-06-14T07:23:58.023Z,17.72
2018-06-14T07:24:57.980Z,17.71
2018-06-14T07:25:57.942Z,17.75
2018-06-14T07:26:57.897Z,17.78
2018-06-14T07:27:57.855Z,17.88
2018-06-14T07:28:57.813Z,17.87
2018-06-14T07:29:57.775Z,17.91
2018-06-14T07:30:57.732Z,17.95
2018-06-14T07:31:57.690Z,18.00
2018-06-14T07:32:57.650Z,18.00
2018-06-14T07:33:57.609Z,18.06
2018-06-14T07:34:57.568Z,18.08
2018-06-14T07:35:57.524Z,18.11
2018-06-14T07:36:57.484Z,18.15
2018-06-14T07:37:57.442Z,18.13
2018-06-14T07:38:57.401Z,18.26
2018-06-14T07:39:57.362Z,18.39
2018-06-14T07:40:57.318Z,18.36
2018-06-14T07:41:57.290Z,18.30
2018-06-14T07:42:57.250Z,18.36
2018-06-14T07:43:57.197Z,18.39
2018-06-14T07:44:57.152Z,18.43
2018-06-14T07:45:57.112Z,18.43
2018-06-14T07:46:57.071Z,18.53
2018-06-14T07:47:57.027Z,18.57
2018-06-14T07:48:56.988Z,18.60
2018-06-14T07:49:56.947Z,18.53
2018-06-14T07:50:56.906Z,18.64
2018-06-14T07:51:56.861Z,18.67
2018-06-14T07:52:56.821Z,18.74
2018-06-14T07:53:56.782Z,18.81
2018-06-14T07:54:56.742Z,18.83
2018-06-14T07:55:56.699Z,18.85
2018-06-14T07:56:56.661Z,18.97
2018-06-14T07:57:56.621Z,18.97
2018-06-14T07:58:56.576Z,19.07
2018-06-14T07:59:56.536Z,19.04
2018-06-14T08:00:56.497Z,19.15
2018-06-14T08:01:56.454Z,19.29
2018-06-14T08:02:56.417Z,19.37
2018-06-14T08:03:56.381Z,19.44
2018-06-14T08:04:56.333Z,19.44
2018-06-14T08:05:56.290Z,19.56
2018-06-14T08:06:56.250Z,19.56
2018-06-14T08:07:56.209Z,19.77
2018-06-14T08:08:56.168Z,19.79
2018-06-14T08:09:56.128Z,19.92
2018-06-14T08:10:56.087Z,19.93
2018-06-14T08:11:56.046Z,20.08
2018-06-14T08:12:56.009Z,20.11
2018-06-14T08:13:55.966Z,20.21
2018-06-14T08:14:55.924Z,20.24
2018-06-14T08:15:55.885Z,20.32
2018-06-14T08:16:55.846Z,20.46
2018-06-14T08:17:55.804Z,20.50
2018-06-14T08:18:55.762Z,20.59
2018-06-14T08:19:55.721Z,20.63
2018-06-14T08:20:55.682Z,20.67
2018-06-14T08:21:55.642Z,20.73
2018-06-14T08:22:55.608Z,20.78
2018-06-14T08:23:55.563Z,20.82
2018-06-14T08:24:55.522Z,20.88
2018-06-14T08:25:55.484Z,21.00
2018-06-14T08:26:55.444Z,21.08
2018-06-14T08:27:55.407Z,21.15
2018-06-14T08:28:55.363Z,21.17
2018-06-14T08:29:55.322Z,21.30
2018-06-14T08:30:55.284Z,21.29
2018-06-14T08:31:55.247Z,21.22
2018-06-14T08:32:55.206Z,21.29
2018-06-14T08:33:55.166Z,21.37
2018-06-14T08:34:55.123Z,21.56
2018-06-14T08:35:55.086Z,21.60
2018-06-14T08:36:55.046Z,21.62
2018-06-14T08:37:55.047Z,21.75
2018-06-14T08:38:54.975Z,21.81
2018-06-14T08:39:54.930Z,22.01
2018-06-14T08:40:54.888Z,22.04
2018-06-14T08:41:54.848Z,22.10
2018-06-14T08:42:54.808Z,22.12
2018-06-14T08:43:54.770Z,22.23
2018-06-14T08:44:54.745Z,22.28
2018-06-14T08:45:54.691Z,22.44
2018-06-14T08:46:54.652Z,22.44
2018-06-14T08:47:54.611Z,22.49
2018-06-14T08:48:54.574Z,22.58
2018-06-14T08:49:54.536Z,22.59
2018-06-14T08:50:54.497Z,22.56
2018-06-14T08:51:54.457Z,22.55
2018-06-14T08:52:54.425Z,22.67
2018-06-14T08:53:54.378Z,22.61
2018-06-14T08:54:54.340Z,22.86
2018-06-14T08:55:54.305Z,22.86
2018-06-14T08:56:54.262Z,22.80
2018-06-14T08:57:54.224Z,22.86
2018-06-14T08:58:54.186Z,22.86
2018-06-14T08:59:54.144Z,22.89
2018-06-14T09:00:54.108Z,22.91
2018-06-14T09:01:54.067Z,22.83
2018-06-14T09:02:54.029Z,22.67
2018-06-14T09:03:53.990Z,22.67
2018-06-14T09:04:53.963Z,22.70
2018-06-14T09:05:53.913Z,22.93
2018-06-14T09:06:53.876Z,23.01
2018-06-14T09:07:53.838Z,23.21
2018-06-14T09:08:53.797Z,23.42
2018-06-14T09:09:53.758Z,23.45
2018-06-14T09:10:53.718Z,23.59
2018-06-14T09:11:53.680Z,23.77
2018-06-14T09:12:53.643Z,23.66
2018-06-14T09:13:53.606Z,23.71
2018-06-14T09:14:53.565Z,23.71
2018-06-14T09:15:53.528Z,23.64
2018-06-14T09:16:53.496Z,23.64
2018-06-14T09:17:53.453Z,23.66
2018-06-14T09:18:53.414Z,23.76
2018-06-14T09:19:53.374Z,23.74
2018-06-14T09:20:53.338Z,23.73
2018-06-14T09:21:53.298Z,23.67
2018-06-14T09:22:53.285Z,23.76
2018-06-14T09:23:53.224Z,23.89
2018-06-14T09:24:53.183Z,23.85
2018-06-14T09:25:53.145Z,23.99
2018-06-14T09:26:53.106Z,24.16
2018-06-14T09:27:53.069Z,24.26
2018-06-14T09:28:53.040Z,24.34
2018-06-14T09:29:53.047Z,24.41
2018-06-14T09:30:52.993Z,24.68
2018-06-14T09:31:52.921Z,24.88
2018-06-14T09:32:52.880Z,24.94
2018-06-14T09:33:52.842Z,24.93
2018-06-14T09:34:52.806Z,24.88
2018-06-14T09:35:52.769Z,24.88
2018-06-14T09:36:52.729Z,24.86
2018-06-14T09:37:52.692Z,24.86
2018-06-14T09:38:52.654Z,24.89
2018-06-14T09:39:52.618Z,24.86
2018-06-14T09:40:52.578Z,25.03
2018-06-14T09:41:52.549Z,24.94
2018-06-14T09:42:52.581Z,24.97
2018-06-14T09:43:52.464Z,24.88
2018-06-14T09:44:52.429Z,24.89
2018-06-14T09:45:52.396Z,24.82
2018-06-14T09:46:52.353Z,24.66
2018-06-14T09:47:52.322Z,24.50
2018-06-14T09:48:52.279Z,24.47
2018-06-14T09:49:52.245Z,24.62
2018-06-14T09:50:52.206Z,24.69
2018-06-14T09:51:52.171Z,24.79
2018-06-14T09:52:52.135Z,24.93
2018-06-14T09:53:52.095Z,25.14
2018-06-14T09:54:52.053Z,25.11
2018-06-14T09:55:52.020Z,25.26
2018-06-14T09:56:51.979Z,25.30
2018-06-14T09:57:51.944Z,25.25
2018-06-14T09:58:51.905Z,25.29
2018-06-14T09:59:51.869Z,25.31
2018-06-14T10:00:51.834Z,25.44
2018-06-14T10:01:51.795Z,25.55
2018-06-14T10:02:51.756Z,25.59
2018-06-14T10:03:51.719Z,25.43
2018-06-14T10:04:51.683Z,25.71
2018-06-14T10:05:51.646Z,25.70
2018-06-14T10:06:51.609Z,25.49
2018-06-14T10:07:51.575Z,25.55
2018-06-14T10:08:51.533Z,25.54
2018-06-14T10:09:51.501Z,25.58
2018-06-14T10:10:51.463Z,25.54
2018-06-14T10:11:51.426Z,25.43
2018-06-14T10:12:51.390Z,25.43
2018-06-14T10:13:51.348Z,25.37
2018-06-14T10:14:51.315Z,25.34
2018-06-14T10:15:51.274Z,25.33
2018-06-14T10:16:51.239Z,25.34
2018-06-14T10:17:51.203Z,25.39
2018-06-14T10:18:51.165Z,25.44
2018-06-14T10:19:51.129Z,25.39
2018-06-14T10:20:51.093Z,25.34
2018-06-14T10:21:51.057Z,25.30
2018-06-14T10:22:51.017Z,25.33
2018-06-14T10:23:50.979Z,25.39
2018-06-14T10:24:50.943Z,25.44
2018-06-14T10:25:50.906Z,25.43
2018-06-14T10:26:50.871Z,25.31
2018-06-14T10:27:50.833Z,25.31
2018-06-14T10:28:50.798Z,25.43
2018-06-14T10:29:50.757Z,25.55
2018-06-14T10:30:50.721Z,25.59
2018-06-14T10:31:50.683Z,25.70
2018-06-14T10:32:50.647Z,25.77
2018-06-14T10:33:50.610Z,25.80
2018-06-14T10:34:50.573Z,25.95
2018-06-14T10:35:50.536Z,26.01
2018-06-14T10:36:50.505Z,26.03
2018-06-14T10:37:50.461Z,26.23
2018-06-14T10:38:50.429Z,26.18
2018-06-14T10:39:50.389Z,26.18
2018-06-14T10:40:50.356Z,26.13
2018-06-14T10:41:50.320Z,26.24
2018-06-14T10:42:50.278Z,26.23
2018-06-14T10:43:50.244Z,26.24
2018-06-14T10:44:50.209Z,26.30
2018-06-14T10:45:50.169Z,26.26
2018-06-14T10:46:50.132Z,26.16
2018-06-14T10:47:50.095Z,26.34
2018-06-14T10:48:50.063Z,26.29
2018-06-14T10:49:50.022Z,26.42
2018-06-14T10:50:49.988Z,26.37
2018-06-14T10:51:49.952Z,26.48
2018-06-14T10:52:49.916Z,26.41
2018-06-14T10:53:49.875Z,26.34
2018-06-14T10:54:49.842Z,26.22
2018-06-14T10:55:49.804Z,26.26
2018-06-14T10:56:49.766Z,26.16
2018-06-14T10:57:49.733Z,26.08
2018-06-14T10:58:49.694Z,26.24
2018-06-14T10:59:49.660Z,26.23
2018-06-14T11:00:49.622Z,26.26
2018-06-14T11:01:49.585Z,26.19
2018-06-14T11:02:49.549Z,26.24
2018-06-14T11:03:49.514Z,26.19
2018-06-14T11:04:49.485Z,26.41
2018-06-14T11:05:49.440Z,26.31
2018-06-14T11:06:49.406Z,26.41
2018-06-14T11:07:49.367Z,26.44
2018-06-14T11:08:49.333Z,26.41
2018-06-14T11:09:49.297Z,26.44
2018-06-14T11:10:49.260Z,26.45
2018-06-14T11:11:49.221Z,26.42
2018-06-14T11:12:49.188Z,26.53
2018-06-14T11:13:49.153Z,26.56
2018-06-14T11:14:49.121Z,26.71
2018-06-14T11:15:49.076Z,26.73
2018-06-14T11:16:49.042Z,26.76
2018-06-14T11:17:49.006Z,26.73
2018-06-14T11:18:48.966Z,26.83
2018-06-14T11:19:48.932Z,26.88
2018-06-14T11:20:48.898Z,26.89
2018-06-14T11:21:48.864Z,27.00
2018-06-14T11:22:48.826Z,27.05
2018-06-14T11:23:48.785Z,27.04
2018-06-14T11:24:48.754Z,27.08
2018-06-14T11:25:48.716Z,27.16
2018-06-14T11:26:48.677Z,27.30
2018-06-14T11:27:48.644Z,27.30
2018-06-14T11:28:48.612Z,27.16
2018-06-14T11:29:48.571Z,27.19
2018-06-14T11:30:48.537Z,27.16
2018-06-14T11:31:48.501Z,27.20
2018-06-14T11:32:48.464Z,27.19
2018-06-14T11:33:48.425Z,27.22
2018-06-14T11:34:48.390Z,27.22
2018-06-14T11:35:48.353Z,27.11
2018-06-14T11:36:48.320Z,27.15
2018-06-14T11:37:48.284Z,27.07
2018-06-14T11:38:48.246Z,27.01
2018-06-14T11:39:48.213Z,26.98
2018-06-14T11:40:48.175Z,26.97
2018-06-14T11:41:48.143Z,26.98
2018-06-14T11:42:48.103Z,27.04
2018-06-14T11:43:48.070Z,27.01
2018-06-14T11:44:48.032Z,27.01
2018-06-14T11:45:47.996Z,27.01
2018-06-14T11:46:47.960Z,26.88
2018-06-14T11:47:47.922Z,26.91
2018-06-14T11:48:47.898Z,26.76
2018-06-14T11:49:47.852Z,26.76
2018-06-14T11:50:47.815Z,26.67
2018-06-14T11:51:47.779Z,26.71
2018-06-14T11:52:47.741Z,26.70
2018-06-14T11:53:47.708Z,26.70
2018-06-14T11:54:47.672Z,26.79
2018-06-14T11:55:47.634Z,26.86
2018-06-14T11:56:47.601Z,26.88
2018-06-14T11:57:47.565Z,26.96
2018-06-14T11:58:47.525Z,26.86
2018-06-14T11:59:47.492Z,26.85
2018-06-14T12:00:47.474Z,26.97
2018-06-14T12:01:47.433Z,27.03
2018-06-14T12:02:47.387Z,27.16
2018-06-14T12:03:47.352Z,27.37
2018-06-14T12:04:47.313Z,27.47
2018-06-14T12:05:47.273Z,27.55
2018-06-14T12:06:47.255Z,27.68
2018-06-14T12:07:47.207Z,27.88
2018-06-14T12:08:47.178Z,28.03
2018-06-14T12:09:47.135Z,28.35
2018-06-14T12:10:47.100Z,28.71
2018-06-14T12:11:47.057Z,28.65
2018-06-14T12:12:47.024Z,28.74
2018-06-14T12:13:46.988Z,28.72
2018-06-14T12:14:46.953Z,28.89
2018-06-14T12:15:46.915Z,28.94
2018-06-14T12:16:47.082Z,28.94
2018-06-14T12:17:46.845Z,28.92
2018-06-14T12:18:46.811Z,28.84
2018-06-14T12:19:46.774Z,28.80
2018-06-14T12:20:46.739Z,28.83
2018-06-14T12:21:46.704Z,28.97
2018-06-14T12:22:46.670Z,29.09
2018-06-14T12:23:46.641Z,29.39
2018-06-14T12:24:46.602Z,29.59
2018-06-14T12:25:46.564Z,29.59
2018-06-14T12:26:46.530Z,29.58
2018-06-14T12:27:46.494Z,29.79
2018-06-14T12:28:46.466Z,30.10
2018-06-14T12:29:46.425Z,30.38
2018-06-14T12:30:46.392Z,30.65
2018-06-14T12:31:46.394Z,30.85
2018-06-14T12:32:46.325Z,30.91
2018-06-14T12:33:46.292Z,31.00
2018-06-14T12:34:46.267Z,31.00
2018-06-14T12:35:46.229Z,31.20
2018-06-14T12:36:46.194Z,31.26
2018-06-14T12:37:46.158Z,31.20
2018-06-14T12:38:46.128Z,31.13
2018-06-14T12:39:46.087Z,31.05
2018-06-14T12:40:46.057Z,30.85
2018-06-14T12:41:46.023Z,30.69
2018-06-14T12:42:45.989Z,30.48
2018-06-14T12:43:45.952Z,30.24
2018-06-14T12:44:45.922Z,30.13
2018-06-14T12:45:45.884Z,29.92
2018-06-14T12:46:45.853Z,29.74
2018-06-14T12:47:45.820Z,29.55
2018-06-14T12:48:45.793Z,29.32
2018-06-14T12:49:45.750Z,29.27
2018-06-14T12:50:45.715Z,29.03
2018-06-14T12:51:45.681Z,29.06